createdAt,value
2018-04-12T00:01:30.111Z,8.83
2018-04-12T00:03:56.509Z,10.23
2018-04-12T00:06:23.663Z,17.00
2018-04-12T00:08:50.049Z,8.77
2018-04-12T00:11:16.432Z,7.33
2018-04-12T00:13:43.581Z,6.33
2018-04-12T00:16:11.510Z,10.37
2018-04-12T00:18:37.911Z,8.47
2018-04-12T00:21:04.297Z,9.87
2018-04-12T00:23:30.913Z,12.07
2018-04-12T00:25:57.318Z,10.40
2018-04-12T00:28:23.743Z,11.93
2018-04-12T00:30:50.179Z,12.60
2018-04-12T00:33:16.571Z,9.53
2018-04-12T00:35:43.036Z,12.23
2018-04-12T00:38:09.449Z,12.57
2018-04-12T00:40:36.729Z,10.93
2018-04-12T00:43:03.115Z,12.83
2018-04-12T00:45:29.514Z,7.43
2018-04-12T00:47:55.911Z,8.60
2018-04-12T00:50:22.291Z,10.57
2018-04-12T00:52:48.681Z,10.60
2018-04-12T00:55:15.084Z,10.80
2018-04-12T00:57:41.457Z,6.10
2018-04-12T01:00:07.958Z,7.90
2018-04-12T01:02:35.111Z,12.67
2018-04-12T01:05:02.296Z,7.10
2018-04-12T01:07:28.690Z,22.23
2018-04-12T01:09:55.079Z,11.37
2018-04-12T01:12:21.470Z,13.10
2018-04-12T01:14:48.595Z,10.80
2018-04-12T01:17:14.987Z,6.00
2018-04-12T01:19:41.392Z,8.30
2018-04-12T01:22:07.794Z,13.37
2018-04-12T01:24:34.202Z,8.30
2018-04-12T01:27:00.608Z,15.80
2018-04-12T01:29:27.051Z,11.10
2018-04-12T01:31:53.477Z,10.83
2018-04-12T01:34:19.860Z,7.33
2018-04-12T01:36:47.017Z,7.00
2018-04-12T01:39:14.144Z,7.00
2018-04-12T01:41:40.531Z,13.17
2018-04-12T01:44:06.917Z,10.83
2018-04-12T01:46:34.821Z,6.93
2018-04-12T01:49:14.193Z,12.90
2018-04-12T01:51:53.866Z,11.00
2018-04-12T01:54:20.292Z,5.57
2018-04-12T01:56:46.878Z,8.63
2018-04-12T01:59:13.283Z,10.50
2018-04-12T02:01:40.421Z,15.97
2018-04-12T02:04:07.561Z,9.90
2018-04-12T02:06:33.954Z,11.63
2018-04-12T02:09:00.358Z,7.80
2018-04-12T02:11:27.486Z,9.17
2018-04-12T02:13:53.906Z,6.03
2018-04-12T02:16:20.300Z,10.40
2018-04-12T02:18:46.726Z,7.50
2018-04-12T02:21:13.115Z,9.83
2018-04-12T02:23:40.258Z,12.33
2018-04-12T02:26:08.150Z,10.20
2018-04-12T02:28:35.283Z,8.90
2018-04-12T02:31:02.421Z,6.50
2018-04-12T02:33:28.896Z,7.50
2018-04-12T02:35:55.306Z,13.10
2018-04-12T02:38:22.480Z,6.43
2018-04-12T02:40:48.871Z,7.43
2018-04-12T02:43:15.286Z,5.63
2018-04-12T02:45:41.682Z,9.80
2018-04-12T02:48:08.122Z,6.60
2018-04-12T02:50:34.547Z,6.73
2018-04-12T02:53:00.947Z,6.67
2018-04-12T02:55:28.083Z,6.87
2018-04-12T02:57:54.467Z,7.83
2018-04-12T03:00:20.868Z,9.60
2018-04-12T03:02:47.999Z,6.10
2018-04-12T03:05:14.574Z,4.53
2018-04-12T03:07:40.966Z,7.23
2018-04-12T03:10:07.414Z,6.80
2018-04-12T03:12:33.802Z,9.93
2018-04-12T03:15:00.183Z,6.60
2018-04-12T03:17:27.325Z,12.77
2018-04-12T03:19:54.445Z,5.17
2018-04-12T03:22:20.889Z,9.93
2018-04-12T03:24:47.280Z,6.47
2018-04-12T03:27:13.671Z,6.70
2018-04-12T03:29:40.065Z,6.13
2018-04-12T03:32:06.463Z,8.50
2018-04-12T03:34:32.864Z,8.40
2018-04-12T03:36:59.261Z,14.53
2018-04-12T03:39:25.703Z,25.13
2018-04-12T03:41:52.102Z,7.17
2018-04-12T03:44:18.596Z,8.47
2018-04-12T03:46:45.027Z,5.83
2018-04-12T03:49:11.496Z,7.83
2018-04-12T03:51:37.873Z,7.03
2018-04-12T03:54:04.273Z,8.40
2018-04-12T03:56:30.668Z,10.00
2018-04-12T03:58:57.795Z,5.50
2018-04-12T04:01:24.183Z,10.13
2018-04-12T04:03:50.743Z,5.63
2018-04-12T04:06:17.127Z,10.00
2018-04-12T04:08:44.263Z,6.23
2018-04-12T04:11:10.713Z,7.60
2018-04-12T04:13:37.826Z,5.47
2018-04-12T04:16:16.530Z,8.47
2018-04-12T04:18:55.374Z,8.17
2018-04-12T04:21:21.819Z,4.93
2018-04-12T04:23:48.219Z,9.00
2018-04-12T04:26:14.608Z,10.77
2018-04-12T04:28:41.732Z,8.40
2018-04-12T04:31:08.859Z,8.30
2018-04-12T04:33:35.263Z,8.20
2018-04-12T04:36:01.691Z,7.30
2018-04-12T04:38:28.092Z,12.33
2018-04-12T04:40:55.397Z,14.03
2018-04-12T04:43:21.804Z,8.17
2018-04-12T04:45:48.207Z,9.13
2018-04-12T04:48:15.346Z,7.80
2018-04-12T04:50:42.501Z,7.23
2018-04-12T04:53:09.638Z,9.80
2018-04-12T04:55:36.056Z,8.73
2018-04-12T04:58:02.525Z,5.80
2018-04-12T05:00:29.688Z,8.87
2018-04-12T05:02:56.856Z,10.00
2018-04-12T05:05:23.279Z,6.77
2018-04-12T05:07:49.711Z,5.90
2018-04-12T05:10:16.165Z,12.53
2018-04-12T05:12:43.407Z,11.00
2018-04-12T05:15:09.804Z,22.20
2018-04-12T05:17:36.203Z,15.70
2018-04-12T05:20:02.640Z,11.97
2018-04-12T05:22:29.062Z,13.20
2018-04-12T05:24:55.484Z,10.50
2018-04-12T05:27:21.906Z,17.17
2018-04-12T05:29:49.084Z,12.13
2018-04-12T05:32:15.480Z,9.90
2018-04-12T05:34:41.873Z,13.90
2018-04-12T05:37:09.030Z,9.23
2018-04-12T05:39:35.468Z,9.73
2018-04-12T05:42:02.622Z,13.83
2018-04-12T05:44:29.756Z,15.47
2018-04-12T05:46:56.949Z,11.50
2018-04-12T05:49:23.459Z,14.13
2018-04-12T05:51:49.936Z,9.87
2018-04-12T05:54:16.374Z,6.20
2018-04-12T05:56:42.791Z,9.13
2018-04-12T05:59:09.214Z,13.70
2018-04-12T06:01:35.622Z,10.53
2018-04-12T06:04:02.797Z,7.97
2018-04-12T06:06:29.209Z,10.10
2018-04-12T06:08:56.360Z,10.60
2018-04-12T06:11:23.567Z,13.60
2018-04-12T06:13:50.169Z,10.17
2018-04-12T06:16:16.593Z,13.97
2018-04-12T06:18:43.073Z,6.13
2018-04-12T06:21:09.504Z,6.23
2018-04-12T06:23:35.911Z,8.10
2018-04-12T06:26:02.319Z,9.80
2018-04-12T06:28:29.518Z,16.80
2018-04-12T06:30:55.878Z,7.07
2018-04-12T06:33:22.267Z,8.90
2018-04-12T06:35:48.662Z,7.47
2018-04-12T06:38:15.806Z,10.70
2018-04-12T06:40:42.944Z,13.67
2018-04-12T06:43:09.365Z,5.67
2018-04-12T06:45:35.763Z,5.80
2018-04-12T06:48:02.142Z,10.10
2018-04-12T06:50:29.490Z,17.73
2018-04-12T06:52:56.639Z,5.80
2018-04-12T06:55:23.050Z,18.70
2018-04-12T06:57:49.452Z,27.83
2018-04-12T07:00:15.894Z,9.90
2018-04-12T07:02:42.324Z,6.83
2018-04-12T07:05:08.739Z,9.07
2018-04-12T07:07:35.916Z,8.00
2018-04-12T07:10:02.362Z,15.00
2018-04-12T07:12:28.770Z,12.83
2018-04-12T07:14:55.188Z,17.80
2018-04-12T07:17:21.626Z,12.90
2018-04-12T07:19:48.093Z,22.23
2018-04-12T07:22:14.529Z,9.43
2018-04-12T07:24:40.948Z,9.33
2018-04-12T07:27:07.387Z,13.43
2018-04-12T07:29:33.785Z,14.60
2018-04-12T07:32:00.224Z,11.60
2018-04-12T07:34:26.680Z,12.20
2018-04-12T07:36:53.078Z,11.43
2018-04-12T07:39:19.476Z,7.83
2018-04-12T07:41:45.896Z,13.10
2018-04-12T07:44:12.294Z,11.70
2018-04-12T07:46:38.702Z,14.63
2018-04-12T07:49:05.850Z,17.43
2018-04-12T07:51:33.029Z,9.03
2018-04-12T07:53:59.504Z,9.60
2018-04-12T07:56:25.907Z,10.27
2018-04-12T07:58:52.301Z,9.20
2018-04-12T08:01:19.451Z,14.87
2018-04-12T08:03:46.584Z,9.97
2018-04-12T08:06:13.044Z,9.60
2018-04-12T08:08:39.466Z,7.67
2018-04-12T08:11:06.611Z,10.93
2018-04-12T08:13:33.757Z,15.47
2018-04-12T08:16:00.225Z,10.83
2018-04-12T08:18:26.804Z,8.70
2018-04-12T08:20:53.254Z,7.73
2018-04-12T08:23:20.465Z,12.00
2018-04-12T08:25:46.875Z,16.70
2018-04-12T08:28:13.285Z,13.90
2018-04-12T08:30:40.428Z,23.13
2018-04-12T08:33:06.832Z,9.20
2018-04-12T08:35:33.232Z,7.00
2018-04-12T08:37:59.661Z,13.57
2018-04-12T08:40:26.075Z,8.67
2018-04-12T08:42:53.224Z,11.43
2018-04-12T08:45:20.372Z,10.50
2018-04-12T08:47:47.557Z,11.23
2018-04-12T08:50:13.969Z,10.37
2018-04-12T08:52:40.392Z,9.53
2018-04-12T08:55:06.810Z,13.90
2018-04-12T08:57:33.984Z,16.03
2018-04-12T09:00:01.148Z,14.00
2018-04-12T09:02:27.584Z,14.37
2018-04-12T09:04:53.988Z,10.57
2018-04-12T09:07:21.165Z,13.40
2018-04-12T09:09:47.586Z,16.53
2018-04-12T09:12:14.040Z,9.50
2018-04-12T09:14:40.468Z,10.80
2018-04-12T09:17:06.869Z,13.23
2018-04-12T09:19:34.132Z,7.37
2018-04-12T09:22:00.533Z,8.37
2018-04-12T09:24:26.929Z,15.47
2018-04-12T09:26:53.333Z,7.93
2018-04-12T09:29:19.738Z,21.43
2018-04-12T09:31:46.890Z,14.00
2018-04-12T09:34:14.085Z,21.70
2018-04-12T09:36:40.519Z,15.00
2018-04-12T09:39:07.046Z,14.70
2018-04-12T09:41:33.568Z,24.37
2018-04-12T09:44:00.714Z,10.50
2018-04-12T09:46:27.887Z,20.67
2018-04-12T09:48:54.283Z,25.07
2018-04-12T09:51:21.448Z,11.60
2018-04-12T09:53:48.722Z,14.70
2018-04-12T09:56:15.194Z,24.37
2018-04-12T09:58:42.331Z,10.43
2018-04-12T10:01:14.856Z,25.73
2018-04-12T10:03:43.983Z,14.50
2018-04-12T10:06:10.468Z,22.03
2018-04-12T10:08:42.509Z,16.97
2018-04-12T10:11:08.921Z,13.43
2018-04-12T10:13:35.336Z,24.63
2018-04-12T10:16:01.777Z,17.30
2018-04-12T10:18:28.195Z,12.10
2018-04-12T10:20:54.603Z,21.57
2018-04-12T10:23:21.755Z,17.47
2018-04-12T10:25:49.109Z,14.83
2018-04-12T10:28:16.273Z,14.73
2018-04-12T10:30:43.444Z,13.40
2018-04-12T10:33:09.874Z,22.40
2018-04-12T10:35:36.283Z,8.43
2018-04-12T10:38:03.448Z,16.03
2018-04-12T10:40:29.920Z,21.13
2018-04-12T10:42:56.329Z,15.57
2018-04-12T10:45:23.536Z,21.93
2018-04-12T10:47:50.699Z,8.90
2018-04-12T10:50:17.136Z,15.57
2018-04-12T10:52:44.322Z,17.53
2018-04-12T10:55:11.013Z,21.10
2018-04-12T10:57:38.171Z,11.40
2018-04-12T11:00:04.620Z,29.03
2018-04-12T11:02:31.791Z,12.13
2018-04-12T11:04:58.359Z,13.07
2018-04-12T11:07:24.761Z,20.30
2018-04-12T11:09:51.196Z,18.00
2018-04-12T11:12:17.673Z,22.67
2018-04-12T11:14:44.833Z,20.00
2018-04-12T11:17:12.717Z,18.10
2018-04-12T11:19:39.889Z,19.40
2018-04-12T11:22:06.342Z,19.33
2018-04-12T11:24:32.835Z,18.90
2018-04-12T11:27:00.000Z,11.37
2018-04-12T11:29:27.261Z,16.43
2018-04-12T11:31:53.706Z,14.53
2018-04-12T11:34:20.196Z,11.90
2018-04-12T11:36:46.547Z,14.20
2018-04-12T11:39:13.701Z,17.23
2018-04-12T11:41:40.145Z,20.73
2018-04-12T11:44:06.577Z,33.30
2018-04-12T11:46:33.699Z,14.37
2018-04-12T11:49:00.918Z,23.47
2018-04-12T11:51:27.337Z,14.83
2018-04-12T11:53:53.773Z,27.60
2018-04-12T11:56:20.325Z,20.13
2018-04-12T11:58:46.768Z,14.80
2018-04-12T12:01:14.666Z,18.40
2018-04-12T12:03:41.844Z,17.90
2018-04-12T12:06:08.328Z,16.63
2018-04-12T12:08:35.474Z,13.07
2018-04-12T12:11:01.884Z,19.20
2018-04-12T12:13:28.296Z,18.97
2018-04-12T12:15:54.718Z,13.53
2018-04-12T12:18:21.175Z,23.83
2018-04-12T12:20:47.593Z,25.73
2018-04-12T12:23:13.990Z,21.30
2018-04-12T12:25:41.190Z,22.90
2018-04-12T12:28:07.576Z,21.80
2018-04-12T12:30:34.728Z,16.13
2018-04-12T12:33:01.903Z,24.10
2018-04-12T12:35:28.305Z,23.23
2018-04-12T12:37:54.716Z,23.40
2018-04-12T12:40:21.134Z,22.90
2018-04-12T12:42:47.556Z,30.57
2018-04-12T12:45:13.976Z,24.43
2018-04-12T12:47:40.373Z,19.00
2018-04-12T12:50:07.536Z,20.43
2018-04-12T12:52:33.941Z,23.70
2018-04-12T12:55:01.828Z,25.43
2018-04-12T12:57:29.014Z,35.57
2018-04-12T12:59:55.456Z,30.60
2018-04-12T13:02:21.872Z,27.27
2018-04-12T13:04:48.258Z,22.07
2018-04-12T13:07:14.664Z,39.20
2018-04-12T13:09:41.109Z,20.90
2018-04-12T13:12:07.520Z,23.23
2018-04-12T13:14:33.945Z,25.57
2018-04-12T13:17:00.362Z,31.57
2018-04-12T13:19:26.821Z,28.53
2018-04-12T13:21:53.254Z,20.03
2018-04-12T13:24:19.698Z,23.87
2018-04-12T13:26:46.132Z,22.10
2018-04-12T13:29:12.528Z,25.30
2018-04-12T13:31:38.975Z,23.03
2018-04-12T13:34:05.437Z,27.53
2018-04-12T13:36:32.186Z,29.93
2018-04-12T13:38:58.695Z,23.40
2018-04-12T13:41:25.099Z,32.87
2018-04-12T13:43:52.237Z,18.93
2018-04-12T13:46:19.393Z,17.43
2018-04-12T13:48:46.566Z,17.73
2018-04-12T13:51:12.996Z,11.30
2018-04-12T13:53:39.462Z,24.27
2018-04-12T13:56:05.873Z,24.33
2018-04-12T13:58:32.292Z,33.27
2018-04-12T14:00:59.474Z,29.83
2018-04-12T14:03:25.922Z,22.70
2018-04-12T14:05:52.340Z,29.37
2018-04-12T14:08:18.744Z,26.80
2018-04-12T14:10:45.202Z,29.83
2018-04-12T14:13:11.563Z,21.33
2018-04-12T14:15:37.991Z,35.57
2018-04-12T14:18:05.875Z,38.13
2018-04-12T14:20:32.267Z,21.50
2018-04-12T14:22:58.704Z,21.77
2018-04-12T14:25:25.162Z,28.00
2018-04-12T14:27:52.324Z,45.47
2018-04-12T14:30:20.231Z,26.83
2018-04-12T14:32:46.636Z,29.70
2018-04-12T14:35:13.789Z,24.77
2018-04-12T14:37:40.972Z,35.30
2018-04-12T14:40:07.412Z,24.50
2018-04-12T14:42:33.815Z,30.10
2018-04-12T14:45:00.967Z,23.57
2018-04-12T14:47:28.131Z,24.57
2018-04-12T14:49:54.549Z,25.23
2018-04-12T14:52:21.688Z,29.20
2018-04-12T14:54:48.869Z,22.37
2018-04-12T14:57:15.289Z,22.57
2018-04-12T14:59:41.711Z,43.23
2018-04-12T15:02:08.838Z,25.60
2018-04-12T15:04:35.988Z,22.50
2018-04-12T15:07:03.913Z,26.60
2018-04-12T15:09:30.325Z,27.27
2018-04-12T15:11:56.740Z,19.90
2018-04-12T15:14:23.870Z,23.03
2018-04-12T15:16:51.760Z,24.30
2018-04-12T15:19:18.897Z,28.47
2018-04-12T15:21:46.100Z,23.50
2018-04-12T15:24:12.516Z,27.57
2018-04-12T15:26:38.904Z,21.93
2018-04-12T15:29:05.343Z,20.53
2018-04-12T15:31:31.739Z,23.30
2018-04-12T15:33:58.141Z,32.23
2018-04-12T15:36:24.536Z,32.53
2018-04-12T15:38:52.412Z,27.80
2018-04-12T15:41:19.540Z,31.73
2018-04-12T15:43:45.927Z,23.93
2018-04-12T15:46:12.343Z,24.43
2018-04-12T15:48:39.468Z,18.27
2018-04-12T15:51:05.904Z,26.10
2018-04-12T15:53:32.336Z,25.00
2018-04-12T15:55:59.506Z,25.17
2018-04-12T15:58:25.941Z,41.53
2018-04-12T16:00:53.107Z,22.23
2018-04-12T16:03:19.551Z,32.50
2018-04-12T16:05:45.992Z,35.17
2018-04-12T16:08:12.429Z,25.63
2018-04-12T16:10:38.826Z,27.03
2018-04-12T16:13:05.970Z,32.50
2018-04-12T16:15:33.307Z,21.47
2018-04-12T16:17:59.714Z,29.57
2018-04-12T16:20:27.058Z,22.93
2018-04-12T16:22:53.477Z,33.50
2018-04-12T16:25:20.052Z,23.47
2018-04-12T16:27:47.219Z,25.63
2018-04-12T16:30:14.377Z,24.43
2018-04-12T16:32:41.529Z,33.20
2018-04-12T16:35:08.660Z,26.30
2018-04-12T16:37:35.078Z,29.17
2018-04-12T16:40:02.478Z,22.70
2018-04-12T16:42:29.638Z,29.83
2018-04-12T16:44:56.070Z,19.77
2018-04-12T16:47:23.794Z,31.83
2018-04-12T16:49:52.129Z,18.57
2018-04-12T16:52:18.563Z,30.53
2018-04-12T16:54:45.018Z,27.83
2018-04-12T16:57:11.418Z,26.17
2018-04-12T16:59:38.319Z,27.40
2018-04-12T17:02:05.892Z,19.77
2018-04-12T17:04:33.363Z,31.97
2018-04-12T17:07:00.579Z,22.90
2018-04-12T17:09:27.419Z,26.77
2018-04-12T17:11:54.011Z,17.80
2018-04-12T17:14:20.648Z,28.80
2018-04-12T17:16:47.344Z,24.47
2018-04-12T17:19:13.908Z,39.47
2018-04-12T17:21:40.325Z,22.67
2018-04-12T17:24:07.481Z,19.33
2018-04-12T17:26:34.611Z,26.10
2018-04-12T17:29:01.096Z,34.43
2018-04-12T17:31:28.794Z,61.27
2018-04-12T17:33:55.984Z,32.73
2018-04-12T17:36:23.134Z,31.93
2018-04-12T17:38:50.291Z,25.73
2018-04-12T17:41:16.696Z,30.10
2018-04-12T17:43:43.140Z,35.43
2018-04-12T17:46:10.307Z,38.07
2018-04-12T17:48:37.502Z,35.73
2018-04-12T17:51:03.975Z,37.10
2018-04-12T17:53:30.378Z,27.83
2018-04-12T17:55:56.807Z,30.37
2018-04-12T17:58:23.338Z,32.63
2018-04-12T18:00:49.744Z,22.67
2018-04-12T18:03:16.208Z,35.83
2018-04-12T18:05:42.641Z,30.90
2018-04-12T18:08:09.060Z,28.23
2018-04-12T18:10:36.449Z,27.70
2018-04-12T18:13:02.864Z,23.40
2018-04-12T18:15:29.297Z,34.33
2018-04-12T18:17:55.700Z,39.40
2018-04-12T18:20:22.105Z,33.03
2018-04-12T18:22:49.265Z,35.93
2018-04-12T18:25:16.420Z,40.03
2018-04-12T18:27:44.523Z,33.37
2018-04-12T18:30:10.919Z,33.77
2018-04-12T18:32:38.234Z,37.53
2018-04-12T18:35:04.655Z,42.13
2018-04-12T18:37:31.075Z,30.57
2018-04-12T18:39:57.445Z,31.07
2018-04-12T18:42:23.835Z,26.53
2018-04-12T18:44:50.242Z,28.60
2018-04-12T18:47:16.655Z,27.93
2018-04-12T18:49:43.043Z,28.93
2018-04-12T18:52:10.215Z,65.47
2018-04-12T18:54:36.627Z,47.93
2018-04-12T18:57:03.616Z,26.90
2018-04-12T18:59:30.109Z,37.00
2018-04-12T19:01:57.516Z,26.47
2018-04-12T19:04:25.298Z,38.63
2018-04-12T19:06:51.700Z,46.17
2018-04-12T19:09:18.079Z,34.57
2018-04-12T19:11:44.493Z,125.23
2018-04-12T19:14:10.903Z,35.17
2018-04-12T19:16:37.295Z,32.80
2018-04-12T19:19:03.753Z,28.90
2018-04-12T19:21:30.170Z,24.13
2018-04-12T19:23:56.630Z,44.47
2018-04-12T19:26:23.089Z,143.07
2018-04-12T19:28:49.511Z,32.50
2018-04-12T19:31:16.660Z,24.30
2018-04-12T19:33:43.815Z,33.43
2018-04-12T19:36:11.073Z,43.53
2018-04-12T19:38:43.639Z,52.13
2018-04-12T19:41:10.770Z,19.60
2018-04-12T19:43:37.154Z,32.23
2018-04-12T19:46:04.439Z,25.40
2018-04-12T19:48:30.855Z,32.13
2018-04-12T19:50:57.252Z,37.37
2018-04-12T19:53:23.757Z,29.57
2018-04-12T19:55:50.106Z,38.70
2018-04-12T19:58:17.277Z,24.43
2018-04-12T20:00:43.687Z,25.00
2018-04-12T20:03:10.920Z,27.53
2018-04-12T20:05:37.329Z,31.00
2018-04-12T20:08:03.744Z,34.30
2018-04-12T20:10:30.132Z,23.37
2018-04-12T20:12:56.516Z,39.50
2018-04-12T20:15:22.896Z,22.87
2018-04-12T20:17:50.027Z,34.03
2018-04-12T20:20:17.951Z,39.87
2018-04-12T20:22:44.375Z,25.93
2018-04-12T20:25:10.835Z,30.27
2018-04-12T20:27:37.256Z,26.40
2018-04-12T20:30:03.693Z,28.80
2018-04-12T20:32:30.190Z,22.03
2018-04-12T20:37:24.832Z,20.43
2018-04-12T20:39:51.219Z,33.97
2018-04-12T20:42:17.647Z,17.60
2018-04-12T20:44:44.254Z,22.77
2018-04-12T20:47:10.755Z,30.70
2018-04-12T20:49:37.166Z,30.47
2018-04-12T20:52:04.335Z,26.07
2018-04-12T20:54:30.799Z,29.37
2018-04-12T20:56:57.245Z,37.00
2018-04-12T20:59:23.660Z,20.30
2018-04-12T21:01:50.065Z,32.27
2018-04-12T21:04:17.209Z,30.50
2018-04-12T21:06:44.344Z,27.90
2018-04-12T21:09:11.564Z,28.37
2018-04-12T21:11:38.024Z,31.83
2018-04-12T21:14:04.431Z,41.73
2018-04-12T21:16:30.931Z,22.60
2018-04-12T21:18:57.382Z,32.13
2018-04-12T21:21:23.796Z,48.67
2018-04-12T21:23:50.215Z,30.33
2018-04-12T21:26:16.663Z,23.67
2018-04-12T21:28:43.103Z,22.63
2018-04-12T21:31:09.508Z,29.70
2018-04-12T21:33:36.648Z,28.97
2018-04-12T21:36:03.855Z,38.20
2018-04-12T21:38:30.259Z,27.70
2018-04-12T21:40:56.656Z,29.17
2018-04-12T21:43:23.092Z,35.20
2018-04-12T21:45:50.238Z,25.30
2018-04-12T21:48:16.647Z,36.77
2018-04-12T21:50:43.038Z,27.53
2018-04-12T21:53:09.450Z,27.50
2018-04-12T21:55:36.650Z,35.07
2018-04-12T21:58:03.059Z,37.50
2018-04-12T22:00:29.498Z,33.57
2018-04-12T22:02:55.898Z,25.37
2018-04-12T22:05:41.399Z,32.93
2018-04-12T22:08:07.801Z,30.10
2018-04-12T22:10:34.946Z,30.13
2018-04-12T22:13:01.351Z,31.07
2018-04-12T22:15:27.748Z,32.13
2018-04-12T22:17:56.257Z,41.13
2018-04-12T22:20:22.702Z,22.77
2018-04-12T22:22:49.115Z,35.17
2018-04-12T22:25:15.524Z,34.97
2018-04-12T22:27:41.920Z,29.50
2018-04-12T22:30:08.316Z,24.23
2018-04-12T22:32:34.702Z,21.83
2018-04-12T22:35:01.845Z,25.03
2018-04-12T22:37:29.030Z,23.53
2018-04-12T22:39:55.420Z,20.87
2018-04-12T22:42:22.734Z,29.60
2018-04-12T22:44:49.120Z,31.47
2018-04-12T22:47:34.749Z,40.03
2018-04-12T22:50:01.153Z,32.40
2018-04-12T22:52:27.561Z,26.73
2018-04-12T22:54:53.992Z,28.93
2018-04-12T22:57:20.416Z,32.63
2018-04-12T22:59:46.844Z,29.87
2018-04-12T23:02:14.752Z,35.10
2018-04-12T23:04:41.135Z,27.20
2018-04-12T23:07:07.528Z,26.10
2018-04-12T23:09:33.932Z,28.07
2018-04-12T23:12:01.077Z,20.10
2018-04-12T23:14:38.390Z,25.70
2018-04-12T23:17:04.891Z,30.70
2018-04-12T23:19:31.283Z,37.83
2018-04-12T23:21:57.695Z,31.53
2018-04-12T23:24:24.096Z,47.00
2018-04-12T23:26:51.293Z,25.10
2018-04-12T23:29:17.675Z,24.20
2018-04-12T23:31:44.075Z,19.53
2018-04-12T23:34:10.453Z,23.00
2018-04-12T23:36:37.601Z,36.70
2018-04-12T23:39:04.792Z,30.00
2018-04-12T23:41:31.189Z,25.80
2018-04-12T23:43:58.405Z,22.07
2018-04-12T23:46:24.804Z,25.07
2018-04-12T23:48:51.202Z,29.50
2018-04-12T23:51:18.323Z,19.20
2018-04-12T23:53:44.713Z,20.97
2018-04-12T23:56:11.135Z,28.40
2018-04-12T23:58:37.538Z,27.77
